Observations for EDINBURGH AIRPORT, United Kingdom (EGPH)

EGPH 191950Z VRB03KT 9999 FEW035 08/06 Q1005
EGPH 191920Z VRB02KT 9999 FEW046 08/06 Q1004
EGPH 191850Z VRB03KT 9999 -RA FEW023 BKN029 09/07 Q1004 
EGPH 191820Z 35005KT 310V010 9999 FEW017 BKN025 10/07 Q1004 
EGPH 191750Z 01004KT 270V060 9999 BKN024 10/07 Q1004
EGPH 191720Z 36004KT 330V030 9999 BKN037 10/06 Q1003
EGPH 191650Z VRB01KT 9999 BKN040 10/07 Q1003
EGPH 191620Z 01002KT 9999 FEW030 SCT045 11/07 Q1002 
EGPH 191550Z 03004KT 9999 SCT030 11/07 Q1002
EGPH 191520Z VRB03KT 9999 SCT029 SCT045 11/07 Q1002 
EGPH 191450Z VRB03KT 9999 FEW030 BKN041 11/07 Q1001 
EGPH 191420Z 35004KT 320V020 9999 FEW030 SCT045 11/06 Q1001 
EGPH 191350Z VRB02KT 9999 SCT030 11/07 Q1001
EGPH 191320Z 36004KT 330V030 9999 SCT028 11/07 Q1001
EGPH 191250Z 04007KT 9999 SCT030 11/07 Q1001
EGPH 191220Z 03008KT 9999 SCT036 11/06 Q1000
EGPH 191150Z 02007KT 9999 FEW047 11/06 Q1000
EGPH 191120Z 03009KT 9999 FEW047 11/06 Q1000
EGPH 191050Z 01007KT 9999 SCT043 10/06 Q1000
EGPH 191020Z 02008KT 9999 SCT044 10/06 Q0999
EGPH 190950Z 02008KT 9999 FEW020 SCT042 10/07 Q0999 
EGPH 190920Z 01008KT 320V040 9999 SCT033 09/07 Q0999
EGPH 190850Z 01008KT 330V040 9999 SCT034 09/06 Q0998
EGPH 190820Z 01008KT 9999 -RA SCT032 09/07 Q0998
EGPH 190750Z 01010KT 330V040 8000 -RA FEW014 BKN029 09/07 Q0998 
EGPH 190720Z 01007KT 330V040 9000 -RA SCT011 OVC040 09/09 Q0997 
EGPH 190650Z 36006KT 310V040 8000 -RA SCT014 BKN037 09/09 Q0997 
EGPH 190620Z 35004KT 310V020 9000 -RA BKN013 09/09 Q0997 RERA   
EGPH 190550Z VRB03KT 9000 RA SCT007 BKN022 09/09 Q0997  
EGPH 190520Z VRB02KT 9000 -RA FEW006 BKN013 OVC040 09/09 Q0996  
EGPH 190450Z VRB02KT 8000 -RA FEW006 BKN012 OVC038 09/09 Q0996 RERA 
EGPH 190420Z 02003KT 5000 RA SCT012 BKN023 OVC041 09/09 Q0996   
EGPH 190350Z VRB03KT 9999 -RA FEW010 OVC043 09/09 Q0996 
EGPH 190320Z 03005KT 9999 -RA FEW009 OVC038 09/09 Q0996 
EGPH 190250Z 02008KT 9999 -RA SCT009 BKN038 09/09 Q0995 
EGPH 190220Z 02006KT 9999 -RA BKN007 OVC012 09/09 Q0995 
EGPH 190150Z 03008KT 9999 -RA OVC006 09/09 Q0995
EGPH 190120Z 04008KT 360V060 5000 -RA BKN006 09/09 Q0995
EGPH 190050Z 03007KT 8000 -RA OVC005 09/09 Q0995 RERA   
EGPH 190020Z 03009KT 360V070 8000 -RA BKN006 09/09 Q0994
EGPH 182350Z 03006KT 9000 -RA OVC007 09/09 Q0994
EGPH 182320Z 01006KT 8000 -RA BKN006 OVC020 09/09 Q0994 
EGPH 182250Z 01005KT 8000 -RA OVC007 09/09 Q0994
EGPH 182220Z VRB02KT 8000 OVC003 09/09 Q0994 RERA   
EGPH 182150Z 25003KT 4000 RA BKN004 08/08 Q0994 
EGPH 182120Z 25004KT 5000 -RA BKN004 08/08 Q0994
EGPH 182020Z 27003KT 6000 -DZ SCT003 OVC016 08/08 Q0994 RERA REDZ   
EGPH 181950Z 25004KT 3500 -RADZ OVC009 08/08 Q0994  
EGPH 181920Z 24003KT 9999 9000SE -RA SCT008 OVC023 08/08 Q0994